createdAt,value
2019-05-30T00:00:05.745Z,0.00
2019-05-30T00:00:50.196Z,0.00
2019-05-30T00:01:50.188Z,0.00
2019-05-30T00:02:50.179Z,0.00
2019-05-30T00:03:50.174Z,0.00
2019-05-30T00:04:50.171Z,0.00
2019-05-30T00:05:50.164Z,0.00
2019-05-30T00:06:50.158Z,0.00
2019-05-30T00:07:50.150Z,0.00
2019-05-30T00:08:50.146Z,0.00
2019-05-30T00:09:50.143Z,0.00
2019-05-30T00:10:50.133Z,0.00
2019-05-30T00:11:50.125Z,0.00
2019-05-30T00:12:50.121Z,0.00
2019-05-30T00:13:50.114Z,0.00
2019-05-30T00:14:50.110Z,0.00
2019-05-30T00:15:50.101Z,0.00
2019-05-30T00:16:50.101Z,0.00
2019-05-30T00:17:50.088Z,0.00
2019-05-30T00:18:50.083Z,0.00
2019-05-30T00:19:50.088Z,0.00
2019-05-30T00:20:50.070Z,0.00
2019-05-30T00:21:50.065Z,0.00
2019-05-30T00:22:50.057Z,0.00
2019-05-30T00:23:50.059Z,0.00
2019-05-30T00:24:50.047Z,0.00
2019-05-30T00:25:50.039Z,0.00
2019-05-30T00:26:50.032Z,0.00
2019-05-30T00:27:50.027Z,0.00
2019-05-30T00:28:50.020Z,0.00
2019-05-30T00:29:50.014Z,0.00
2019-05-30T00:30:50.006Z,0.00
2019-05-30T00:31:50.007Z,0.00
2019-05-30T00:32:49.995Z,0.00
2019-05-30T00:33:49.992Z,0.00
2019-05-30T00:34:49.982Z,0.00
2019-05-30T00:35:49.975Z,0.00
2019-05-30T00:36:49.970Z,0.00
2019-05-30T00:37:49.968Z,0.00
2019-05-30T00:38:49.959Z,0.00
2019-05-30T00:39:49.952Z,0.00
2019-05-30T00:40:49.948Z,0.00
2019-05-30T00:41:49.943Z,0.00
2019-05-30T00:42:49.942Z,0.00
2019-05-30T00:43:49.925Z,0.00
2019-05-30T00:44:49.924Z,0.00
2019-05-30T00:45:49.915Z,0.00
2019-05-30T00:46:49.961Z,0.00
2019-05-30T00:47:49.903Z,0.00
2019-05-30T00:48:49.898Z,0.00
2019-05-30T00:49:49.891Z,0.00
2019-05-30T00:50:49.883Z,0.00
2019-05-30T00:51:49.882Z,0.00
2019-05-30T00:52:49.871Z,0.00
2019-05-30T00:53:49.867Z,0.00
2019-05-30T00:54:49.857Z,0.00
2019-05-30T00:55:49.853Z,0.00
2019-05-30T00:56:49.846Z,0.00
2019-05-30T00:57:49.840Z,0.00
2019-05-30T00:58:49.835Z,0.00
2019-05-30T00:59:49.848Z,0.00
2019-05-30T01:00:49.822Z,0.00
2019-05-30T01:01:49.817Z,0.00
2019-05-30T01:02:49.817Z,0.00
2019-05-30T01:03:49.803Z,0.00
2019-05-30T01:04:49.812Z,0.00
2019-05-30T01:05:49.788Z,0.00
2019-05-30T01:06:49.782Z,0.00
2019-05-30T01:07:49.775Z,0.00
2019-05-30T01:08:49.771Z,0.00
2019-05-30T01:09:49.764Z,0.00
2019-05-30T01:10:49.756Z,0.00
2019-05-30T01:11:49.751Z,0.00
2019-05-30T01:12:49.749Z,0.00
2019-05-30T01:13:49.740Z,0.00
2019-05-30T01:14:49.736Z,0.00
2019-05-30T01:15:49.719Z,0.00
2019-05-30T01:16:49.717Z,0.00
2019-05-30T01:17:49.713Z,0.00
2019-05-30T01:18:49.708Z,0.00
2019-05-30T01:19:49.697Z,0.00
2019-05-30T01:20:49.692Z,0.00
2019-05-30T01:21:49.687Z,0.00
2019-05-30T01:22:49.682Z,0.00
2019-05-30T01:23:49.678Z,0.00
2019-05-30T01:24:49.669Z,0.00
2019-05-30T01:25:49.662Z,0.00
2019-05-30T01:26:49.657Z,0.00
2019-05-30T01:27:49.649Z,0.00
2019-05-30T01:28:49.640Z,0.00
2019-05-30T01:29:49.638Z,0.00
2019-05-30T01:30:59.459Z,0.00
2019-05-30T01:31:49.621Z,0.00
2019-05-30T01:32:49.620Z,0.00
2019-05-30T01:33:49.610Z,0.00
2019-05-30T01:34:49.604Z,0.00
2019-05-30T01:35:49.598Z,0.00
2019-05-30T01:36:49.591Z,0.00
2019-05-30T01:37:49.586Z,0.00
2019-05-30T01:38:49.581Z,0.00
2019-05-30T01:39:49.587Z,0.00
2019-05-30T01:40:49.564Z,0.00
2019-05-30T01:41:49.558Z,0.00
2019-05-30T01:42:49.555Z,0.00
2019-05-30T01:43:49.544Z,0.00
2019-05-30T01:44:49.542Z,0.00
2019-05-30T01:45:49.532Z,0.00
2019-05-30T01:46:49.528Z,0.00
2019-05-30T01:47:49.522Z,0.00
2019-05-30T01:48:49.510Z,0.00
2019-05-30T01:49:49.507Z,0.00
2019-05-30T01:50:49.502Z,0.00
2019-05-30T01:51:49.493Z,0.00
2019-05-30T01:52:49.485Z,0.00
2019-05-30T01:53:49.481Z,0.00
2019-05-30T01:54:49.478Z,0.00
2019-05-30T01:55:49.469Z,0.00
2019-05-30T01:56:49.459Z,0.00
2019-05-30T01:57:49.472Z,0.00
2019-05-30T01:58:49.449Z,0.00
2019-05-30T01:59:49.439Z,0.00
2019-05-30T02:00:49.434Z,0.00
2019-05-30T02:01:49.428Z,0.00
2019-05-30T02:02:49.425Z,0.00
2019-05-30T02:03:49.413Z,0.00
2019-05-30T02:04:49.412Z,0.00
2019-05-30T02:05:49.399Z,0.00
2019-05-30T02:06:49.393Z,0.00
2019-05-30T02:07:49.383Z,0.00
2019-05-30T02:08:49.386Z,0.00
2019-05-30T02:09:49.373Z,0.00
2019-05-30T02:10:49.367Z,0.00
2019-05-30T02:11:49.363Z,0.00
2019-05-30T02:12:49.351Z,0.00
2019-05-30T02:13:49.345Z,0.00
2019-05-30T02:14:49.337Z,0.00
2019-05-30T02:15:49.332Z,0.00
2019-05-30T02:16:49.332Z,0.00
2019-05-30T02:17:49.319Z,0.00
2019-05-30T02:18:49.319Z,0.00
2019-05-30T02:19:49.307Z,0.00
2019-05-30T02:20:49.299Z,0.00
2019-05-30T02:21:49.292Z,0.00
2019-05-30T02:22:49.288Z,0.00
2019-05-30T02:23:49.279Z,0.00
2019-05-30T02:24:49.270Z,0.00
2019-05-30T02:25:49.266Z,0.00
2019-05-30T02:26:49.257Z,0.00
2019-05-30T02:27:49.249Z,0.00
2019-05-30T02:28:49.246Z,0.00
2019-05-30T02:29:49.239Z,0.00
2019-05-30T02:30:49.230Z,0.00
2019-05-30T02:31:49.224Z,0.00
2019-05-30T02:32:49.226Z,0.00
2019-05-30T02:33:49.209Z,0.00
2019-05-30T02:34:49.202Z,0.00
2019-05-30T02:35:49.194Z,0.00
2019-05-30T02:36:49.193Z,0.00
2019-05-30T02:37:49.191Z,0.00
2019-05-30T02:38:49.188Z,0.00
2019-05-30T02:39:49.169Z,0.00
2019-05-30T02:40:49.163Z,0.00
2019-05-30T02:41:49.163Z,0.00
2019-05-30T02:42:49.148Z,0.00
2019-05-30T02:43:49.143Z,0.00
2019-05-30T02:44:49.135Z,0.00
2019-05-30T02:45:49.129Z,0.00
2019-05-30T02:46:49.119Z,0.00
2019-05-30T02:47:49.112Z,5.63
2019-05-30T02:48:59.043Z,5.63
2019-05-30T02:49:49.100Z,5.63
2019-05-30T02:50:49.092Z,5.63
2019-05-30T02:51:49.088Z,5.63
2019-05-30T02:52:49.081Z,5.63
2019-05-30T02:53:49.073Z,5.63
2019-05-30T02:54:49.066Z,5.63
2019-05-30T02:55:49.057Z,5.63
2019-05-30T02:56:49.047Z,5.63
2019-05-30T02:57:49.043Z,11.25
2019-05-30T02:58:49.036Z,11.25
2019-05-30T02:59:49.028Z,11.25
2019-05-30T03:00:49.024Z,11.25
2019-05-30T03:02:01.064Z,11.25
2019-05-30T03:02:49.009Z,11.25
2019-05-30T03:03:49.002Z,11.25
2019-05-30T03:04:48.991Z,11.25
2019-05-30T03:05:48.987Z,16.88
2019-05-30T03:06:48.978Z,16.88
2019-05-30T03:07:48.976Z,16.88
2019-05-30T03:08:49.074Z,16.88
2019-05-30T03:09:48.957Z,16.88
2019-05-30T03:10:48.960Z,16.88
2019-05-30T03:11:48.944Z,22.50
2019-05-30T03:12:48.941Z,22.50
2019-05-30T03:13:48.929Z,22.50
2019-05-30T03:14:48.924Z,22.50
2019-05-30T03:15:48.917Z,22.50
2019-05-30T03:16:48.909Z,22.50
2019-05-30T03:17:48.905Z,22.50
2019-05-30T03:18:48.894Z,22.50
2019-05-30T03:19:48.886Z,28.13
2019-05-30T03:20:48.881Z,28.13
2019-05-30T03:21:48.873Z,28.13
2019-05-30T03:22:48.866Z,28.13
2019-05-30T03:23:48.860Z,33.75
2019-05-30T03:24:48.857Z,33.75
2019-05-30T03:25:48.847Z,39.38
2019-05-30T03:26:48.840Z,39.38
2019-05-30T03:27:48.837Z,45.00
2019-05-30T03:28:53.241Z,50.63
2019-05-30T03:29:48.820Z,56.25
2019-05-30T03:30:48.810Z,61.88
2019-05-30T03:31:48.807Z,67.50
2019-05-30T03:33:06.034Z,67.50
2019-05-30T03:33:48.792Z,67.50
2019-05-30T03:34:48.783Z,67.50
2019-05-30T03:35:48.777Z,67.50
2019-05-30T03:36:48.769Z,67.50
2019-05-30T03:37:48.764Z,73.13
2019-05-30T03:38:48.751Z,78.75
2019-05-30T03:39:48.752Z,90.00
2019-05-30T03:40:48.741Z,106.88
2019-05-30T03:41:48.750Z,118.13
2019-05-30T03:42:48.727Z,112.50
2019-05-30T03:43:48.728Z,106.88
2019-05-30T03:44:48.716Z,101.25
2019-05-30T03:45:48.715Z,101.25
2019-05-30T03:46:48.698Z,95.63
2019-05-30T03:47:48.692Z,101.25
2019-05-30T03:48:48.688Z,106.88
2019-05-30T03:49:48.679Z,123.75
2019-05-30T03:50:48.672Z,151.88
2019-05-30T03:51:48.676Z,185.63
2019-05-30T03:52:48.651Z,213.75
2019-05-30T03:53:48.654Z,236.25
2019-05-30T03:54:48.644Z,247.50
2019-05-30T03:55:48.640Z,253.13
2019-05-30T03:56:48.632Z,258.75
2019-05-30T03:57:48.626Z,264.38
2019-05-30T03:58:48.619Z,270.00
2019-05-30T03:59:48.619Z,275.63
2019-05-30T04:00:51.255Z,281.25
2019-05-30T04:01:48.601Z,281.25
2019-05-30T04:02:57.050Z,281.25
2019-05-30T04:03:48.589Z,286.88
2019-05-30T04:04:48.581Z,286.88
2019-05-30T04:05:48.571Z,292.50
2019-05-30T04:06:48.568Z,292.50
2019-05-30T04:07:48.562Z,292.50
2019-05-30T04:08:48.555Z,298.13
2019-05-30T04:09:48.552Z,303.75
2019-05-30T04:10:48.547Z,303.75
2019-05-30T04:11:48.541Z,303.75
2019-05-30T04:12:48.535Z,309.38
2019-05-30T04:13:48.531Z,309.38
2019-05-30T04:14:48.525Z,315.00
2019-05-30T04:15:48.521Z,315.00
2019-05-30T04:16:48.519Z,315.00
2019-05-30T04:17:48.514Z,320.63
2019-05-30T04:18:48.522Z,320.63
2019-05-30T04:19:48.505Z,315.00
2019-05-30T04:20:48.499Z,315.00
2019-05-30T04:21:48.493Z,315.00
2019-05-30T04:22:48.484Z,326.25
2019-05-30T04:23:48.481Z,331.88
2019-05-30T04:24:48.477Z,337.50
2019-05-30T04:25:48.478Z,343.13
2019-05-30T04:26:48.468Z,343.13
2019-05-30T04:27:48.473Z,343.13
2019-05-30T04:28:48.474Z,343.13
2019-05-30T04:29:48.458Z,348.75
2019-05-30T04:30:48.450Z,348.75
2019-05-30T04:31:48.447Z,354.38
2019-05-30T04:32:48.448Z,348.75
2019-05-30T04:33:48.443Z,354.38
2019-05-30T04:34:48.445Z,354.38
2019-05-30T04:35:48.438Z,354.38
2019-05-30T04:36:52.955Z,360.00
2019-05-30T04:37:48.429Z,365.63
2019-05-30T04:38:48.431Z,365.63
2019-05-30T04:39:48.415Z,371.25
2019-05-30T04:40:48.420Z,371.25
2019-05-30T04:41:48.417Z,371.25
2019-05-30T04:42:48.418Z,376.88
2019-05-30T04:43:48.418Z,376.88
2019-05-30T04:44:48.410Z,376.88
2019-05-30T04:45:48.407Z,382.50
2019-05-30T04:46:48.407Z,382.50
2019-05-30T04:47:48.403Z,382.50
2019-05-30T04:48:48.402Z,388.13
2019-05-30T04:49:48.397Z,388.13
2019-05-30T04:50:48.397Z,388.13
2019-05-30T04:51:48.392Z,393.75
2019-05-30T04:52:48.393Z,393.75
2019-05-30T04:53:48.392Z,393.75
2019-05-30T04:54:48.390Z,393.75
2019-05-30T04:55:48.388Z,393.75
2019-05-30T04:56:48.386Z,399.38
2019-05-30T04:57:48.388Z,399.38
2019-05-30T04:58:48.381Z,371.25
2019-05-30T04:59:48.380Z,337.50
2019-05-30T05:00:48.381Z,388.13
2019-05-30T05:01:48.376Z,393.75
2019-05-30T05:02:48.375Z,399.38
2019-05-30T05:03:48.375Z,410.63
2019-05-30T05:04:48.371Z,410.63
2019-05-30T05:05:48.383Z,416.25
2019-05-30T05:06:48.390Z,410.63
2019-05-30T05:07:48.370Z,399.38
2019-05-30T05:08:48.371Z,410.63
2019-05-30T05:09:48.368Z,416.25
2019-05-30T05:10:48.374Z,421.88
2019-05-30T05:11:48.364Z,421.88
2019-05-30T05:12:48.368Z,427.50
2019-05-30T05:13:48.365Z,427.50
2019-05-30T05:14:48.362Z,337.50
2019-05-30T05:15:48.361Z,371.25
2019-05-30T05:16:48.360Z,416.25
2019-05-30T05:17:48.359Z,438.75
2019-05-30T05:18:48.357Z,438.75
2019-05-30T05:19:48.357Z,438.75
2019-05-30T05:20:48.357Z,438.75
2019-05-30T05:21:48.358Z,438.75
2019-05-30T05:22:48.360Z,438.75
2019-05-30T05:23:48.355Z,433.13
2019-05-30T05:24:48.354Z,427.50
2019-05-30T05:26:00.245Z,421.88
2019-05-30T05:26:48.354Z,421.88
2019-05-30T05:27:48.353Z,421.88
2019-05-30T05:28:48.364Z,427.50
2019-05-30T05:29:48.355Z,433.13
2019-05-30T05:30:48.354Z,427.50
2019-05-30T05:31:48.351Z,433.13
2019-05-30T05:32:48.353Z,421.88
2019-05-30T05:33:56.629Z,410.63
2019-05-30T05:34:51.810Z,393.75
2019-05-30T05:35:48.351Z,388.13
2019-05-30T05:36:48.351Z,405.00
2019-05-30T05:37:48.356Z,416.25
2019-05-30T05:38:48.357Z,348.75
2019-05-30T05:39:48.353Z,331.88
2019-05-30T05:40:48.359Z,382.50
2019-05-30T05:41:48.354Z,433.13
2019-05-30T05:42:48.353Z,438.75
2019-05-30T05:43:48.352Z,461.25
2019-05-30T05:44:48.354Z,466.88
2019-05-30T05:45:48.359Z,472.50
2019-05-30T05:46:48.359Z,478.13
2019-05-30T05:47:48.356Z,478.13
2019-05-30T05:48:48.359Z,483.75
2019-05-30T05:49:48.359Z,483.75
2019-05-30T05:50:48.356Z,489.38
2019-05-30T05:51:48.356Z,495.00
2019-05-30T05:52:48.358Z,495.00
2019-05-30T05:53:48.359Z,500.63
2019-05-30T05:54:48.359Z,511.88
2019-05-30T05:55:48.362Z,511.88
2019-05-30T05:56:48.366Z,511.88
2019-05-30T05:57:48.362Z,500.63
2019-05-30T05:58:48.366Z,511.88
2019-05-30T05:59:48.366Z,523.13
2019-05-30T06:00:48.395Z,528.75
2019-05-30T06:01:48.368Z,540.00
2019-05-30T06:02:48.370Z,551.25
2019-05-30T06:03:48.372Z,579.38
2019-05-30T06:04:48.373Z,607.50
2019-05-30T06:05:52.862Z,691.88
2019-05-30T06:06:48.378Z,1057.50
2019-05-30T06:07:48.379Z,1456.88
2019-05-30T06:08:48.381Z,1653.75
2019-05-30T06:09:48.385Z,1698.75
2019-05-30T06:10:48.388Z,1721.25
2019-05-30T06:11:49.112Z,1771.88
2019-05-30T06:12:48.393Z,1788.75
2019-05-30T06:13:48.392Z,1726.88
2019-05-30T06:14:48.398Z,1755.00
2019-05-30T06:15:48.397Z,1783.13
2019-05-30T06:16:48.400Z,1771.88
2019-05-30T06:17:48.401Z,1822.50
2019-05-30T06:18:48.409Z,1878.75
2019-05-30T06:19:48.410Z,1935.00
2019-05-30T06:20:48.408Z,1963.13
2019-05-30T06:21:53.856Z,2075.63
2019-05-30T06:22:48.415Z,2041.88
2019-05-30T06:23:48.434Z,1968.75
2019-05-30T06:24:48.419Z,1963.13
2019-05-30T06:25:48.422Z,1935.00
2019-05-30T06:26:48.431Z,1951.88
2019-05-30T06:27:48.428Z,1935.00
2019-05-30T06:28:48.432Z,1906.88
2019-05-30T06:29:48.434Z,1929.38
2019-05-30T06:30:48.437Z,1906.88
2019-05-30T06:31:48.441Z,2025.00
2019-05-30T06:32:48.441Z,2070.00
2019-05-30T06:33:48.446Z,2075.63
2019-05-30T06:34:48.451Z,2025.00
2019-05-30T06:35:48.455Z,2008.13
2019-05-30T06:36:48.455Z,2036.25
2019-05-30T06:37:48.460Z,2160.00
2019-05-30T06:38:48.468Z,2317.50
2019-05-30T06:39:48.467Z,2250.00
2019-05-30T06:40:48.471Z,2070.00
2019-05-30T06:41:48.474Z,2008.13
2019-05-30T06:42:48.479Z,2109.38
2019-05-30T06:43:48.477Z,2205.00
2019-05-30T06:44:48.486Z,2193.75
2019-05-30T06:45:48.492Z,2171.25
2019-05-30T06:46:48.493Z,2182.50
2019-05-30T06:47:48.506Z,2103.75
2019-05-30T06:48:48.503Z,2148.75
2019-05-30T06:49:48.508Z,2137.50
2019-05-30T06:50:48.505Z,2188.13
2019-05-30T06:51:48.512Z,2160.00
2019-05-30T06:52:48.514Z,2126.25
2019-05-30T06:53:48.519Z,2047.50
2019-05-30T06:54:48.522Z,2064.38
2019-05-30T06:55:48.528Z,2210.63
2019-05-30T06:56:48.530Z,2356.88
2019-05-30T06:57:48.534Z,2441.25
2019-05-30T06:58:49.187Z,2458.13
2019-05-30T06:59:48.541Z,2385.00
2019-05-30T07:00:48.547Z,2351.25
2019-05-30T07:01:51.830Z,2272.50
2019-05-30T07:02:48.557Z,2289.38
2019-05-30T07:03:48.607Z,2300.63
2019-05-30T07:04:52.223Z,2311.88
2019-05-30T07:05:49.088Z,2351.25
2019-05-30T07:06:48.874Z,2396.25
2019-05-30T07:07:48.734Z,2486.25
2019-05-30T07:08:48.579Z,2446.88
2019-05-30T07:09:48.586Z,2356.88
2019-05-30T07:10:48.589Z,2362.50
2019-05-30T07:11:48.603Z,2458.13
2019-05-30T07:12:48.599Z,2576.25
2019-05-30T07:13:48.603Z,2598.75
2019-05-30T07:14:48.607Z,2655.00
2019-05-30T07:15:48.620Z,2160.00
2019-05-30T07:16:48.615Z,2160.00
2019-05-30T07:17:48.625Z,2508.75
2019-05-30T07:18:48.626Z,2570.63
2019-05-30T07:19:48.632Z,2621.25
2019-05-30T07:20:48.640Z,2711.25
2019-05-30T07:21:48.645Z,2750.63
2019-05-30T07:22:48.645Z,2750.63
2019-05-30T07:23:48.651Z,2835.00
2019-05-30T07:24:48.656Z,2778.75
2019-05-30T07:25:48.663Z,2683.13
2019-05-30T07:26:48.665Z,2733.75
2019-05-30T07:27:48.669Z,2812.50
2019-05-30T07:28:48.675Z,2806.88
2019-05-30T07:29:48.680Z,2767.50
2019-05-30T07:30:48.688Z,2953.13
2019-05-30T07:31:48.693Z,2998.13
2019-05-30T07:32:48.696Z,3003.75
2019-05-30T07:33:48.703Z,3015.00
2019-05-30T07:34:48.708Z,2998.13
2019-05-30T07:35:48.712Z,3009.38
2019-05-30T07:36:48.719Z,2981.25
2019-05-30T07:37:48.750Z,2958.75
2019-05-30T07:38:48.730Z,2902.50
2019-05-30T07:39:48.739Z,2846.25
2019-05-30T07:40:48.743Z,2925.00
2019-05-30T07:42:04.986Z,3003.75
2019-05-30T07:42:48.752Z,3161.25
2019-05-30T07:43:48.761Z,3234.38
2019-05-30T07:44:48.767Z,3251.25
2019-05-30T07:45:57.651Z,3240.00
2019-05-30T07:46:48.777Z,3245.63
2019-05-30T07:47:48.785Z,3346.88
2019-05-30T07:48:48.795Z,3341.25
2019-05-30T07:49:48.793Z,3318.75
2019-05-30T07:50:48.804Z,3386.25
2019-05-30T07:51:48.809Z,3470.63
2019-05-30T07:52:48.820Z,3498.75
2019-05-30T07:53:48.822Z,3459.38
2019-05-30T07:54:48.827Z,3414.38
2019-05-30T07:55:48.834Z,3425.63
2019-05-30T07:56:48.844Z,3515.63
2019-05-30T07:57:48.847Z,3616.88
2019-05-30T07:58:48.853Z,3718.13
2019-05-30T07:59:48.861Z,3768.75
2019-05-30T08:00:48.868Z,3774.38
2019-05-30T08:01:48.885Z,3757.50
2019-05-30T08:02:48.880Z,3712.50
2019-05-30T08:03:48.886Z,3628.13
2019-05-30T08:04:48.897Z,3588.75
2019-05-30T08:05:48.902Z,3583.13
2019-05-30T08:06:48.908Z,3633.75
2019-05-30T08:07:48.917Z,3746.25
2019-05-30T08:08:48.924Z,3819.38
2019-05-30T08:09:48.929Z,3830.63
2019-05-30T08:10:48.936Z,3774.38
2019-05-30T08:11:48.945Z,3661.88
2019-05-30T08:12:48.954Z,3594.38
2019-05-30T08:13:48.961Z,3560.63
2019-05-30T08:14:48.969Z,3645.00
2019-05-30T08:15:48.977Z,3650.63
2019-05-30T08:16:48.983Z,3628.13
2019-05-30T08:17:48.997Z,3650.63
2019-05-30T08:18:48.997Z,3600.00
2019-05-30T08:19:49.001Z,3566.25
2019-05-30T08:20:49.015Z,3628.13
2019-05-30T08:21:49.019Z,3740.63
2019-05-30T08:22:49.025Z,3853.13
2019-05-30T08:23:49.034Z,3954.38
2019-05-30T08:24:49.038Z,3982.50
2019-05-30T08:25:49.049Z,3988.13
2019-05-30T08:26:49.063Z,3988.13
2019-05-30T08:27:49.066Z,4005.00
2019-05-30T08:28:49.074Z,4021.88
2019-05-30T08:29:49.081Z,4005.00
2019-05-30T08:30:49.091Z,3926.25
2019-05-30T08:31:49.098Z,3802.50
2019-05-30T08:32:49.107Z,3735.00
2019-05-30T08:33:49.114Z,3740.63
2019-05-30T08:34:49.126Z,3785.63
2019-05-30T08:35:50.377Z,3881.25
2019-05-30T08:36:49.141Z,3999.38
2019-05-30T08:37:49.149Z,4128.75
2019-05-30T08:38:49.157Z,4185.00
2019-05-30T08:39:49.166Z,4145.63
2019-05-30T08:40:49.175Z,4100.63
2019-05-30T08:41:49.186Z,4066.88
2019-05-30T08:42:49.195Z,4050.00
2019-05-30T08:43:49.201Z,4083.75
2019-05-30T08:44:49.208Z,4140.00
2019-05-30T08:45:49.220Z,4190.63
2019-05-30T08:46:49.366Z,4213.13
2019-05-30T08:47:49.238Z,4252.50
2019-05-30T08:48:49.246Z,4258.13
2019-05-30T08:49:49.257Z,4179.38
2019-05-30T08:50:49.268Z,4021.88
2019-05-30T08:51:49.277Z,3903.75
2019-05-30T08:52:49.282Z,3729.38
2019-05-30T08:53:49.293Z,3605.63
2019-05-30T08:54:49.300Z,2683.13
2019-05-30T08:55:49.311Z,815.63
2019-05-30T08:56:49.318Z,337.50
2019-05-30T08:57:49.328Z,326.25
2019-05-30T08:58:49.338Z,309.38
2019-05-30T08:59:49.344Z,281.25
2019-05-30T09:00:49.355Z,270.00
2019-05-30T09:01:52.853Z,264.38
2019-05-30T09:02:49.370Z,258.75
2019-05-30T09:03:49.374Z,253.13
2019-05-30T09:04:49.385Z,247.50
2019-05-30T09:06:03.050Z,247.50
2019-05-30T09:06:49.395Z,247.50
2019-05-30T09:07:49.401Z,241.88
2019-05-30T09:08:49.409Z,241.88
2019-05-30T09:09:49.414Z,236.25
2019-05-30T09:10:49.421Z,236.25
2019-05-30T09:11:49.429Z,236.25
2019-05-30T09:12:49.790Z,230.63
2019-05-30T09:13:49.449Z,230.63
2019-05-30T09:14:49.441Z,230.63
2019-05-30T09:15:49.447Z,230.63
2019-05-30T09:16:49.947Z,230.63
2019-05-30T09:17:49.457Z,230.63
2019-05-30T09:18:49.456Z,230.63
2019-05-30T09:19:49.462Z,230.63
2019-05-30T09:20:49.464Z,230.63
2019-05-30T09:21:49.469Z,230.63
2019-05-30T09:22:49.471Z,230.63
2019-05-30T09:23:49.519Z,230.63
2019-05-30T09:24:49.511Z,230.63
2019-05-30T09:25:49.520Z,230.63
2019-05-30T09:26:50.474Z,225.00
2019-05-30T09:27:49.488Z,225.00
2019-05-30T09:28:49.492Z,225.00
2019-05-30T09:29:49.495Z,225.00
2019-05-30T09:30:49.496Z,225.00
2019-05-30T09:31:49.506Z,225.00
2019-05-30T09:32:49.504Z,225.00
2019-05-30T09:33:49.504Z,225.00
2019-05-30T09:34:49.506Z,225.00
2019-05-30T09:35:49.510Z,225.00
2019-05-30T09:36:49.512Z,225.00
2019-05-30T09:37:49.655Z,219.38
2019-05-30T09:38:49.811Z,219.38
2019-05-30T09:39:49.516Z,219.38
2019-05-30T09:40:49.670Z,219.38
2019-05-30T09:41:49.869Z,219.38
2019-05-30T09:42:50.386Z,219.38
2019-05-30T09:43:50.253Z,213.75
2019-05-30T09:44:51.864Z,213.75
2019-05-30T09:45:50.155Z,213.75
2019-05-30T09:46:50.542Z,213.75
2019-05-30T09:47:51.242Z,213.75
2019-05-30T09:48:51.266Z,213.75
2019-05-30T09:49:50.868Z,213.75
2019-05-30T09:50:51.033Z,208.13
2019-05-30T09:51:49.554Z,208.13
2019-05-30T09:52:49.546Z,208.13
2019-05-30T09:53:50.465Z,208.13
2019-05-30T09:54:50.307Z,208.13
2019-05-30T09:55:51.489Z,208.13
2019-05-30T09:56:50.689Z,208.13
2019-05-30T09:57:49.671Z,208.13
2019-05-30T09:58:49.805Z,208.13
2019-05-30T09:59:50.463Z,208.13
2019-05-30T10:00:50.429Z,208.13
2019-05-30T10:01:50.140Z,208.13
2019-05-30T10:02:50.529Z,208.13
2019-05-30T10:03:50.226Z,208.13
2019-05-30T10:04:50.421Z,208.13
2019-05-30T10:05:50.556Z,208.13
2019-05-30T10:06:50.520Z,208.13
2019-05-30T10:07:50.720Z,208.13
2019-05-30T10:08:50.009Z,208.13
2019-05-30T10:09:49.565Z,208.13
2019-05-30T10:10:49.647Z,208.13
2019-05-30T10:11:49.569Z,208.13
2019-05-30T10:12:50.320Z,208.13
2019-05-30T10:13:51.139Z,213.75
2019-05-30T10:14:50.858Z,213.75
2019-05-30T10:15:50.517Z,213.75
2019-05-30T10:16:53.341Z,213.75
2019-05-30T10:17:52.185Z,213.75
2019-05-30T10:18:50.801Z,208.13
2019-05-30T10:19:50.870Z,208.13
2019-05-30T10:20:51.782Z,208.13
2019-05-30T10:21:51.565Z,208.13
2019-05-30T10:22:50.828Z,213.75
2019-05-30T10:23:51.968Z,213.75
2019-05-30T10:24:49.632Z,208.13
2019-05-30T10:25:49.590Z,208.13
2019-05-30T10:26:49.588Z,213.75
2019-05-30T10:27:51.040Z,213.75
2019-05-30T10:28:49.675Z,213.75
2019-05-30T10:29:49.594Z,213.75
2019-05-30T10:30:53.639Z,213.75
2019-05-30T10:31:50.574Z,213.75
2019-05-30T10:32:50.350Z,213.75
2019-05-30T10:33:50.945Z,219.38
2019-05-30T10:34:49.643Z,219.38
2019-05-30T10:35:51.139Z,219.38
2019-05-30T10:36:50.302Z,219.38
2019-05-30T10:37:50.749Z,219.38
2019-05-30T10:38:50.454Z,219.38
2019-05-30T10:39:50.878Z,213.75
2019-05-30T10:40:50.486Z,213.75
2019-05-30T10:41:49.609Z,213.75
2019-05-30T10:42:51.183Z,213.75
2019-05-30T10:43:49.611Z,208.13
2019-05-30T10:44:51.087Z,213.75
2019-05-30T10:45:49.653Z,213.75
2019-05-30T10:46:51.016Z,213.75
2019-05-30T10:47:49.624Z,213.75
2019-05-30T10:48:50.853Z,213.75
2019-05-30T10:49:49.914Z,213.75
2019-05-30T10:50:50.515Z,213.75
2019-05-30T10:51:49.705Z,213.75
2019-05-30T10:52:49.632Z,213.75
2019-05-30T10:53:50.890Z,208.13
2019-05-30T10:54:49.631Z,208.13
2019-05-30T10:55:50.062Z,208.13
2019-05-30T10:56:49.965Z,202.50
2019-05-30T10:57:50.063Z,208.13
2019-05-30T10:58:50.748Z,208.13
2019-05-30T10:59:50.848Z,208.13
2019-05-30T11:00:50.847Z,202.50
2019-05-30T11:01:50.364Z,208.13
2019-05-30T11:02:51.088Z,208.13
2019-05-30T11:03:50.403Z,208.13
2019-05-30T11:04:50.735Z,208.13
2019-05-30T11:05:50.640Z,208.13
2019-05-30T11:07:06.808Z,208.13
2019-05-30T11:08:00.323Z,213.75
2019-05-30T11:08:50.639Z,213.75
2019-05-30T11:09:50.555Z,213.75
2019-05-30T11:10:50.614Z,213.75
2019-05-30T11:11:50.778Z,213.75
2019-05-30T11:12:55.397Z,213.75
2019-05-30T11:13:50.836Z,219.38
2019-05-30T11:14:50.226Z,219.38
2019-05-30T11:15:49.907Z,213.75
2019-05-30T11:16:50.524Z,213.75
2019-05-30T11:17:51.503Z,213.75
2019-05-30T11:18:51.416Z,213.75
2019-05-30T11:19:49.993Z,213.75
2019-05-30T11:20:49.961Z,213.75
2019-05-30T11:21:49.764Z,213.75
2019-05-30T11:22:50.067Z,213.75
2019-05-30T11:23:51.035Z,213.75
2019-05-30T11:24:50.375Z,213.75
2019-05-30T11:25:50.450Z,213.75
2019-05-30T11:26:50.946Z,213.75
2019-05-30T11:27:50.550Z,213.75
2019-05-30T11:28:50.481Z,213.75
2019-05-30T11:29:50.561Z,208.13
2019-05-30T11:30:50.619Z,213.75
2019-05-30T11:31:50.726Z,213.75
2019-05-30T11:32:50.850Z,213.75
2019-05-30T11:33:50.789Z,213.75
2019-05-30T11:34:51.075Z,213.75
2019-05-30T11:35:50.901Z,213.75
2019-05-30T11:36:50.725Z,213.75
2019-05-30T11:37:50.967Z,213.75
2019-05-30T11:38:51.991Z,213.75
2019-05-30T11:39:49.698Z,213.75
2019-05-30T11:40:49.699Z,208.13
2019-05-30T11:41:49.701Z,208.13
2019-05-30T11:42:49.707Z,208.13
2019-05-30T11:43:49.707Z,213.75
2019-05-30T11:44:49.747Z,213.75
2019-05-30T11:45:49.787Z,208.13
2019-05-30T11:46:49.710Z,208.13
2019-05-30T11:47:49.712Z,208.13
2019-05-30T11:48:49.713Z,208.13
2019-05-30T11:49:49.718Z,208.13
2019-05-30T11:50:50.771Z,208.13
2019-05-30T11:51:49.755Z,213.75
2019-05-30T11:52:49.872Z,213.75
2019-05-30T11:53:49.793Z,208.13
2019-05-30T11:54:49.891Z,208.13
2019-05-30T11:55:50.169Z,208.13
2019-05-30T11:56:50.018Z,208.13
2019-05-30T11:57:49.986Z,208.13
2019-05-30T11:58:49.891Z,208.13
2019-05-30T11:59:50.119Z,208.13
2019-05-30T12:00:50.201Z,208.13
2019-05-30T12:01:50.232Z,180.00
2019-05-30T12:02:50.225Z,213.75
2019-05-30T12:03:50.512Z,219.38
2019-05-30T12:04:50.498Z,213.75
2019-05-30T12:05:50.441Z,225.00
2019-05-30T12:06:51.075Z,236.25
2019-05-30T12:07:50.720Z,270.00
2019-05-30T12:08:50.692Z,275.63
2019-05-30T12:09:50.763Z,236.25
2019-05-30T12:10:51.093Z,213.75
2019-05-30T12:11:50.918Z,208.13
2019-05-30T12:12:51.089Z,208.13
2019-05-30T12:13:51.563Z,208.13
2019-05-30T12:14:51.191Z,208.13
2019-05-30T12:15:51.183Z,174.38
2019-05-30T12:16:51.034Z,213.75
2019-05-30T12:17:49.769Z,225.00
2019-05-30T12:18:49.769Z,225.00
2019-05-30T12:19:49.773Z,236.25
2019-05-30T12:20:49.780Z,275.63
2019-05-30T12:21:49.778Z,247.50
2019-05-30T12:22:49.779Z,236.25
2019-05-30T12:23:49.784Z,225.00
2019-05-30T12:24:49.799Z,219.38
2019-05-30T12:25:49.790Z,213.75
2019-05-30T12:26:49.787Z,219.38
2019-05-30T12:27:49.798Z,219.38
2019-05-30T12:28:49.791Z,225.00
2019-05-30T12:29:49.796Z,230.63
2019-05-30T12:30:56.747Z,225.00
2019-05-30T12:31:49.800Z,213.75
2019-05-30T12:32:49.802Z,208.13
2019-05-30T12:33:49.801Z,202.50
2019-05-30T12:34:49.805Z,202.50